createdAt,value
2024-01-11T00:00:17.651Z,29.60
2024-01-11T00:01:49.156Z,30.09
2024-01-11T00:03:20.588Z,30.60
2024-01-11T00:04:52.161Z,30.30
2024-01-11T00:06:23.795Z,30.64
2024-01-11T00:07:55.886Z,30.75
2024-01-11T00:09:27.513Z,30.35
2024-01-11T00:10:58.983Z,30.34
2024-01-11T00:12:30.743Z,30.44
2024-01-11T00:14:02.106Z,30.65
2024-01-11T00:15:33.575Z,31.22
2024-01-11T00:17:05.110Z,31.57
2024-01-11T00:18:36.952Z,31.03
2024-01-11T00:20:08.408Z,31.57
2024-01-11T00:21:41.964Z,31.02
2024-01-11T00:23:13.432Z,30.97
2024-01-11T00:24:44.724Z,30.86
2024-01-11T00:26:15.974Z,30.06
2024-01-11T00:27:48.547Z,31.17
2024-01-11T00:29:19.915Z,30.39
2024-01-11T00:30:51.625Z,31.32
2024-01-11T00:32:23.101Z,30.92
2024-01-11T00:33:55.013Z,30.97
2024-01-11T00:35:26.531Z,31.23
2024-01-11T00:36:58.209Z,31.22
2024-01-11T00:38:29.598Z,31.40
2024-01-11T00:40:00.901Z,30.92
2024-01-11T00:41:32.308Z,30.80
2024-01-11T00:43:03.892Z,31.28
2024-01-11T00:44:35.436Z,31.23
2024-01-11T00:46:06.798Z,31.48
2024-01-11T00:47:38.030Z,31.66
2024-01-11T00:49:09.477Z,31.12
2024-01-11T00:50:40.842Z,31.06
2024-01-11T00:52:12.366Z,31.62
2024-01-11T00:53:43.971Z,31.87
2024-01-11T00:55:15.319Z,31.64
2024-01-11T00:56:46.691Z,31.67
2024-01-11T00:58:18.332Z,31.28
2024-01-11T00:59:51.067Z,31.04
2024-01-11T01:01:22.614Z,31.55
2024-01-11T01:02:54.238Z,30.60
2024-01-11T01:04:25.605Z,30.89
2024-01-11T01:05:57.557Z,31.87
2024-01-11T01:07:29.027Z,31.40
2024-01-11T01:09:00.282Z,31.56
2024-01-11T01:10:31.726Z,31.41
2024-01-11T01:12:03.403Z,32.28
2024-01-11T01:13:34.571Z,32.38
2024-01-11T01:15:05.778Z,31.77
2024-01-11T01:16:37.199Z,31.83
2024-01-11T01:18:09.126Z,31.65
2024-01-11T01:19:40.737Z,31.92
2024-01-11T01:21:12.148Z,31.41
2024-01-11T01:22:43.332Z,31.23
2024-01-11T01:24:14.662Z,31.76
2024-01-11T01:25:46.050Z,31.60
2024-01-11T01:27:17.639Z,31.58
2024-01-11T01:28:49.192Z,31.41
2024-01-11T01:30:20.957Z,31.78
2024-01-11T01:31:52.128Z,31.95
2024-01-11T01:33:23.617Z,31.45
2024-01-11T01:34:55.270Z,31.38
2024-01-11T01:36:27.092Z,31.20
2024-01-11T01:37:58.684Z,31.65
2024-01-11T01:39:30.081Z,31.57
2024-01-11T01:41:01.442Z,31.34
2024-01-11T01:42:32.957Z,31.66
2024-01-11T01:44:09.212Z,32.59
2024-01-11T01:45:40.580Z,32.24
2024-01-11T01:47:12.008Z,31.48
2024-01-11T01:48:43.421Z,31.54
2024-01-11T01:50:15.152Z,31.40
2024-01-11T01:51:46.906Z,32.07
2024-01-11T01:53:18.383Z,31.81
2024-01-11T01:54:49.854Z,31.32
2024-01-11T01:56:21.345Z,31.23
2024-01-11T01:57:52.695Z,31.42
2024-01-11T01:59:24.132Z,31.54
2024-01-11T02:00:55.422Z,31.38
2024-01-11T02:02:26.811Z,31.37
2024-01-11T02:03:57.897Z,31.46
2024-01-11T02:05:29.397Z,31.00
2024-01-11T02:07:00.837Z,31.29
2024-01-11T02:08:32.055Z,30.84
2024-01-11T02:10:03.334Z,31.65
2024-01-11T02:11:34.704Z,30.86
2024-01-11T02:13:08.304Z,30.17
2024-01-11T02:14:41.406Z,31.93
2024-01-11T02:16:12.788Z,32.34
2024-01-11T02:17:44.258Z,32.57
2024-01-11T02:19:15.781Z,33.33
2024-01-11T02:20:47.116Z,34.22
2024-01-11T02:22:18.544Z,34.00
2024-01-11T02:23:49.970Z,33.01
2024-01-11T02:25:21.142Z,31.71
2024-01-11T02:26:52.546Z,31.25
2024-01-11T02:28:23.970Z,31.38
2024-01-11T02:29:55.465Z,31.74
2024-01-11T02:31:26.695Z,32.59
2024-01-11T02:32:58.082Z,33.07
2024-01-11T02:34:29.491Z,33.66
2024-01-11T02:36:00.888Z,34.03
2024-01-11T02:37:32.229Z,33.92
2024-01-11T02:39:03.537Z,32.83
2024-01-11T02:40:34.655Z,33.22
2024-01-11T02:42:11.196Z,34.20
2024-01-11T02:43:42.546Z,33.74
2024-01-11T02:45:14.015Z,33.81
2024-01-11T02:46:45.156Z,33.38
2024-01-11T02:48:16.631Z,33.65
2024-01-11T02:49:47.871Z,34.58
2024-01-11T02:51:19.098Z,34.44
2024-01-11T02:52:50.531Z,34.45
2024-01-11T02:54:22.019Z,33.95
2024-01-11T02:55:53.500Z,33.72
2024-01-11T02:57:24.704Z,34.67
2024-01-11T02:58:56.495Z,34.06
2024-01-11T03:00:27.630Z,34.37
2024-01-11T03:01:59.163Z,34.58
2024-01-11T03:03:30.615Z,34.48
2024-01-11T03:05:02.210Z,34.42
2024-01-11T03:06:33.495Z,34.37
2024-01-11T03:08:05.102Z,34.02
2024-01-11T03:09:36.232Z,34.75
2024-01-11T03:11:07.631Z,34.63
2024-01-11T03:12:40.295Z,34.31
2024-01-11T03:14:11.721Z,33.61
2024-01-11T03:15:43.135Z,33.56
2024-01-11T03:17:14.602Z,33.98
2024-01-11T03:18:45.811Z,33.75
2024-01-11T03:20:17.343Z,32.74
2024-01-11T03:21:48.994Z,31.69
2024-01-11T03:23:20.916Z,31.65
2024-01-11T03:24:52.463Z,31.87
2024-01-11T03:26:23.595Z,31.70
2024-01-11T03:27:55.085Z,31.97
2024-01-11T03:29:26.374Z,33.62
2024-01-11T03:30:57.871Z,32.89
2024-01-11T03:32:29.706Z,32.70
2024-01-11T03:34:02.043Z,32.69
2024-01-11T03:35:33.244Z,32.71
2024-01-11T03:37:04.546Z,32.51
2024-01-11T03:38:35.973Z,32.73
2024-01-11T03:40:07.354Z,32.68
2024-01-11T03:41:39.206Z,32.80
2024-01-11T03:43:10.870Z,32.51
2024-01-11T03:44:42.199Z,33.02
2024-01-11T03:46:13.654Z,33.29
2024-01-11T03:47:45.326Z,34.72
2024-01-11T03:49:17.739Z,33.87
2024-01-11T03:50:49.180Z,33.41
2024-01-11T03:52:20.517Z,33.24
2024-01-11T03:53:51.805Z,33.82
2024-01-11T03:55:23.261Z,34.00
2024-01-11T03:56:54.728Z,33.49
2024-01-11T03:58:26.045Z,32.94
2024-01-11T03:59:57.730Z,32.79
2024-01-11T04:01:29.184Z,33.99
2024-01-11T04:03:00.940Z,33.42
2024-01-11T04:04:32.280Z,33.57
2024-01-11T04:06:03.839Z,33.97
2024-01-11T04:07:35.482Z,33.83
2024-01-11T04:09:06.997Z,33.88
2024-01-11T04:10:38.676Z,33.85
2024-01-11T04:12:10.018Z,34.21
2024-01-11T04:13:41.563Z,33.88
2024-01-11T04:15:12.796Z,34.30
2024-01-11T04:16:44.459Z,34.81
2024-01-11T04:18:16.009Z,34.83
2024-01-11T04:19:47.642Z,33.17
2024-01-11T04:21:18.963Z,32.90
2024-01-11T04:22:50.594Z,33.60
2024-01-11T04:24:22.072Z,32.63
2024-01-11T04:25:53.716Z,32.96
2024-01-11T04:27:25.024Z,32.63
2024-01-11T04:28:59.354Z,32.80
2024-01-11T04:30:31.598Z,32.77
2024-01-11T04:32:02.973Z,32.51
2024-01-11T04:33:35.697Z,31.94
2024-01-11T04:35:07.194Z,32.04
2024-01-11T04:36:38.606Z,32.39
2024-01-11T04:38:10.386Z,32.41
2024-01-11T04:39:41.518Z,32.83
2024-01-11T04:41:13.233Z,31.80
2024-01-11T04:42:44.423Z,32.37
2024-01-11T04:44:15.787Z,32.37
2024-01-11T04:45:47.201Z,31.91
2024-01-11T04:47:18.610Z,31.73
2024-01-11T04:48:50.250Z,31.38
2024-01-11T04:50:23.045Z,31.75
2024-01-11T04:51:54.884Z,31.77
2024-01-11T04:53:27.377Z,31.80
2024-01-11T04:54:58.767Z,31.82
2024-01-11T04:56:30.499Z,32.31
2024-01-11T04:58:02.263Z,32.50
2024-01-11T04:59:34.831Z,31.84
2024-01-11T05:01:06.281Z,31.74
2024-01-11T05:02:37.726Z,32.00
2024-01-11T05:04:09.245Z,31.90
2024-01-11T05:05:40.887Z,32.67
2024-01-11T05:07:12.030Z,32.48
2024-01-11T05:08:43.675Z,33.12
2024-01-11T05:10:14.820Z,33.40
2024-01-11T05:11:46.197Z,33.09
2024-01-11T05:13:17.627Z,33.15
2024-01-11T05:14:49.164Z,33.57
2024-01-11T05:16:20.505Z,32.96
2024-01-11T05:17:52.081Z,33.10
2024-01-11T05:19:23.665Z,32.72
2024-01-11T05:20:55.044Z,34.30
2024-01-11T05:22:26.653Z,34.49
2024-01-11T05:24:28.334Z,33.89
2024-01-11T05:28:01.282Z,34.56
2024-01-11T05:29:32.820Z,33.34
2024-01-11T05:31:04.390Z,33.72
2024-01-11T05:32:36.186Z,34.82
2024-01-11T05:34:17.623Z,33.24
2024-01-11T05:35:49.139Z,33.94
2024-01-11T05:37:20.938Z,33.87
2024-01-11T05:38:52.522Z,33.73
2024-01-11T05:40:23.905Z,35.04
2024-01-11T05:41:55.611Z,34.70
2024-01-11T05:43:27.014Z,34.11
2024-01-11T05:44:58.484Z,34.39
2024-01-11T05:46:32.442Z,34.51
2024-01-11T05:48:05.229Z,34.92
2024-01-11T05:49:36.578Z,34.83
2024-01-11T05:51:08.274Z,33.92
2024-01-11T05:52:40.237Z,34.79
2024-01-11T05:54:11.730Z,34.25
2024-01-11T05:55:43.020Z,35.23
2024-01-11T05:57:14.695Z,35.56
2024-01-11T05:58:46.131Z,34.58
2024-01-11T06:02:14.284Z,35.05
2024-01-11T06:03:45.811Z,34.78
2024-01-11T06:05:17.298Z,34.67
2024-01-11T06:06:48.446Z,34.92
2024-01-11T06:08:20.299Z,34.89
2024-01-11T06:09:51.690Z,34.64
2024-01-11T06:11:22.925Z,34.91
2024-01-11T06:12:54.438Z,34.60
2024-01-11T06:14:25.894Z,34.01
2024-01-11T06:15:57.328Z,33.51
2024-01-11T06:17:28.755Z,33.17
2024-01-11T06:19:00.163Z,34.33
2024-01-11T06:20:32.546Z,34.47
2024-01-11T06:22:03.892Z,33.68
2024-01-11T06:23:35.171Z,34.48
2024-01-11T06:25:06.679Z,35.05
2024-01-11T06:26:37.980Z,33.71
2024-01-11T06:28:09.752Z,33.60
2024-01-11T06:29:46.038Z,33.04
2024-01-11T06:31:17.481Z,33.40
2024-01-11T06:32:49.138Z,33.15
2024-01-11T06:34:21.037Z,32.64
2024-01-11T06:35:53.020Z,32.49
2024-01-11T06:37:24.269Z,32.42
2024-01-11T06:38:55.436Z,31.73
2024-01-11T06:40:26.839Z,33.40
2024-01-11T06:41:58.431Z,33.38
2024-01-11T06:43:30.140Z,34.70
2024-01-11T06:45:01.507Z,34.80
2024-01-11T06:46:32.722Z,33.96
2024-01-11T06:48:04.088Z,33.36
2024-01-11T06:49:35.453Z,34.87
2024-01-11T06:51:07.859Z,34.02
2024-01-11T06:52:39.318Z,33.23
2024-01-11T06:54:11.135Z,33.79
2024-01-11T06:55:42.446Z,32.67
2024-01-11T06:57:13.799Z,33.10
2024-01-11T06:58:45.049Z,33.38
2024-01-11T07:00:16.491Z,33.22
2024-01-11T07:02:02.843Z,33.36
2024-01-11T07:03:34.492Z,33.56
2024-01-11T07:05:05.832Z,33.31
2024-01-11T07:06:37.267Z,33.66
2024-01-11T07:08:08.765Z,33.97
2024-01-11T07:09:40.291Z,34.82
2024-01-11T07:11:11.738Z,34.18
2024-01-11T07:12:42.884Z,34.76
2024-01-11T07:14:14.318Z,33.77
2024-01-11T07:15:45.652Z,34.81
2024-01-11T07:17:17.245Z,34.35
2024-01-11T07:18:49.469Z,34.54
2024-01-11T07:20:21.171Z,34.64
2024-01-11T07:21:52.572Z,34.35
2024-01-11T07:23:24.025Z,34.84
2024-01-11T07:24:55.752Z,35.33
2024-01-11T07:26:27.250Z,33.61
2024-01-11T07:27:58.512Z,34.00
2024-01-11T07:29:30.050Z,34.53
2024-01-11T07:31:01.870Z,34.52
2024-01-11T07:32:33.704Z,33.39
2024-01-11T07:34:05.232Z,33.71
2024-01-11T07:35:36.741Z,34.20
2024-01-11T07:37:08.238Z,34.30
2024-01-11T07:38:40.182Z,33.95
2024-01-11T07:40:12.066Z,33.96
2024-01-11T07:42:26.836Z,33.37
2024-01-11T07:43:58.314Z,33.68
2024-01-11T07:45:29.841Z,34.00
2024-01-11T07:47:17.335Z,35.23
2024-01-11T07:48:48.904Z,34.72
2024-01-11T07:50:20.377Z,34.56
2024-01-11T07:51:51.923Z,33.65
2024-01-11T07:53:23.086Z,32.60
2024-01-11T07:54:54.868Z,33.72
2024-01-11T07:56:26.346Z,33.98
2024-01-11T07:57:58.127Z,32.76
2024-01-11T07:59:29.678Z,32.80
2024-01-11T08:01:01.780Z,33.49
2024-01-11T08:02:33.230Z,33.74
2024-01-11T08:04:04.741Z,34.28
2024-01-11T08:05:36.142Z,33.77
2024-01-11T08:07:07.580Z,33.31
2024-01-11T08:08:39.342Z,33.51
2024-01-11T08:10:10.861Z,33.75
2024-01-11T08:11:45.833Z,33.69
2024-01-11T08:13:20.342Z,33.85
2024-01-11T08:16:58.649Z,33.61
2024-01-11T08:18:30.700Z,33.45
2024-01-11T08:20:02.565Z,34.48
2024-01-11T08:21:34.662Z,34.69
2024-01-11T08:23:06.412Z,34.48
2024-01-11T08:24:57.368Z,35.08
2024-01-11T08:26:58.924Z,34.56
2024-01-11T08:28:40.611Z,34.43
2024-01-11T08:30:12.168Z,34.30
2024-01-11T08:31:53.881Z,34.10
2024-01-11T08:33:25.640Z,34.72
2024-01-11T08:34:57.987Z,34.30
2024-01-11T08:36:29.996Z,34.58
2024-01-11T08:38:06.635Z,33.42
2024-01-11T08:40:03.458Z,34.12
2024-01-11T08:41:35.142Z,34.52
2024-01-11T08:43:12.026Z,34.09
2024-01-11T08:44:43.602Z,34.68
2024-01-11T08:49:14.964Z,34.06
2024-01-11T08:51:20.063Z,37.52
2024-01-11T08:52:53.837Z,43.05
2024-01-11T08:54:54.723Z,40.60
2024-01-11T08:56:36.151Z,36.91
2024-01-11T09:00:06.051Z,37.02
2024-01-11T09:01:46.893Z,38.26
2024-01-11T09:03:21.294Z,38.15
2024-01-11T09:05:02.787Z,38.34
2024-01-11T09:06:39.501Z,37.56
2024-01-11T09:08:10.735Z,38.54
2024-01-11T09:09:53.771Z,38.88
2024-01-11T09:11:34.079Z,39.55
2024-01-11T09:13:37.402Z,38.81
2024-01-11T09:15:08.996Z,39.03
2024-01-11T09:17:02.579Z,38.47
2024-01-11T09:18:34.178Z,38.67
2024-01-11T09:20:38.248Z,38.12
2024-01-11T09:22:19.897Z,38.49
2024-01-11T09:24:01.386Z,37.93
2024-01-11T09:25:57.823Z,38.10
2024-01-11T09:27:29.552Z,37.98
2024-01-11T09:29:01.056Z,38.74
2024-01-11T09:30:47.373Z,38.34
2024-01-11T09:32:19.281Z,38.93
2024-01-11T09:34:20.492Z,38.70
2024-01-11T09:36:29.912Z,38.48
2024-01-11T09:38:01.697Z,37.57
2024-01-11T09:40:04.647Z,37.28
2024-01-11T09:41:47.007Z,38.21
2024-01-11T09:43:48.349Z,38.75
2024-01-11T09:45:19.641Z,38.68
2024-01-11T09:47:16.693Z,38.34
2024-01-11T09:48:55.605Z,37.79
2024-01-11T09:51:04.006Z,37.66
2024-01-11T09:53:00.288Z,37.71
2024-01-11T09:54:46.878Z,37.51
2024-01-11T09:56:18.115Z,36.39
2024-01-11T09:58:00.568Z,36.58
2024-01-11T09:59:47.052Z,35.85
2024-01-11T10:01:18.973Z,36.75
2024-01-11T10:02:55.380Z,35.96
2024-01-11T10:04:41.702Z,36.99
2024-01-11T10:06:13.232Z,36.78
2024-01-11T10:08:20.305Z,38.10
2024-01-11T10:09:52.447Z,37.56
2024-01-11T10:11:24.404Z,38.43
2024-01-11T10:13:28.629Z,39.51
2024-01-11T10:15:05.239Z,36.96
2024-01-11T10:16:36.803Z,40.52
2024-01-11T10:18:13.554Z,40.05
2024-01-11T10:20:10.181Z,36.09
2024-01-11T10:21:51.825Z,38.11
2024-01-11T10:23:43.629Z,39.74
2024-01-11T10:25:57.529Z,38.48
2024-01-11T10:27:50.108Z,38.99
2024-01-11T10:31:33.007Z,39.32
2024-01-11T10:33:09.527Z,40.41
2024-01-11T10:34:57.279Z,40.97
2024-01-11T10:36:38.677Z,40.84
2024-01-11T10:38:29.894Z,43.57
2024-01-11T10:40:01.357Z,43.66
2024-01-11T10:42:10.382Z,43.58
2024-01-11T10:43:41.956Z,42.99
2024-01-11T10:45:23.324Z,42.73
2024-01-11T10:46:59.725Z,41.17
2024-01-11T10:48:30.980Z,40.80
2024-01-11T10:50:12.464Z,40.15
2024-01-11T10:52:04.577Z,40.97
2024-01-11T10:53:40.915Z,42.31
2024-01-11T10:55:12.258Z,42.91
2024-01-11T10:56:44.081Z,41.90
2024-01-11T10:58:15.634Z,40.77
2024-01-11T10:59:48.148Z,39.71
2024-01-11T11:01:20.532Z,40.18
2024-01-11T11:02:52.678Z,39.63
2024-01-11T11:04:29.562Z,38.56
2024-01-11T11:06:07.108Z,39.15
2024-01-11T11:07:38.466Z,38.66
2024-01-11T11:09:09.978Z,37.94
2024-01-11T11:10:46.791Z,36.76
2024-01-11T11:12:23.566Z,36.56
2024-01-11T11:13:54.960Z,34.75
2024-01-11T11:15:36.443Z,33.48
2024-01-11T11:17:08.024Z,32.51
2024-01-11T11:18:39.812Z,32.62
2024-01-11T11:20:16.948Z,32.68
2024-01-11T11:21:48.697Z,32.24
2024-01-11T11:23:20.250Z,32.69
2024-01-11T11:25:13.170Z,32.71
2024-01-11T11:26:45.053Z,33.20
2024-01-11T11:28:16.990Z,33.14
2024-01-11T11:30:18.119Z,31.74
2024-01-11T11:31:50.074Z,30.67
2024-01-11T11:33:47.983Z,31.53
2024-01-11T11:35:27.448Z,31.10
2024-01-11T11:37:18.071Z,31.50
2024-01-11T11:38:59.557Z,30.62
2024-01-11T11:41:15.016Z,30.69
2024-01-11T11:43:03.517Z,30.77
2024-01-11T11:44:35.062Z,30.86
2024-01-11T11:46:06.510Z,30.36
2024-01-11T11:47:38.127Z,30.19
2024-01-11T11:49:09.706Z,29.92
2024-01-11T11:51:25.620Z,30.40
2024-01-11T11:53:00.034Z,31.00
2024-01-11T11:54:41.509Z,30.31
2024-01-11T11:56:23.179Z,30.92
2024-01-11T11:57:54.961Z,31.00
2024-01-11T11:59:47.594Z,28.03
2024-01-11T12:01:25.485Z,26.20
2024-01-11T12:03:12.726Z,28.48
2024-01-11T12:04:54.439Z,29.26
2024-01-11T12:06:31.705Z,28.17
2024-01-11T12:08:08.580Z,27.60
2024-01-11T12:09:55.396Z,29.01
2024-01-11T12:11:42.261Z,30.76
2024-01-11T12:13:39.078Z,33.49
2024-01-11T12:15:10.404Z,30.53
2024-01-11T12:16:57.107Z,32.38
2024-01-11T12:18:29.009Z,31.26
2024-01-11T12:20:05.619Z,31.14
2024-01-11T12:21:37.699Z,27.91
2024-01-11T12:23:09.358Z,28.16
2024-01-11T12:24:51.324Z,29.98
2024-01-11T12:26:24.081Z,29.36
2024-01-11T12:27:56.256Z,30.95
2024-01-11T12:29:29.321Z,29.20
2024-01-11T12:31:16.350Z,28.11
2024-01-11T12:32:50.735Z,26.81
2024-01-11T12:34:42.658Z,26.28
2024-01-11T12:36:19.929Z,28.48
2024-01-11T12:37:51.993Z,27.06
2024-01-11T12:39:23.737Z,29.31
2024-01-11T12:40:56.017Z,26.25
2024-01-11T12:42:37.546Z,29.02
2024-01-11T12:44:09.082Z,28.70
2024-01-11T12:46:00.743Z,26.05
2024-01-11T12:47:32.709Z,27.43
2024-01-11T12:49:04.420Z,28.25
2024-01-11T12:52:47.763Z,24.51
2024-01-11T12:54:19.490Z,22.78
2024-01-11T12:55:55.643Z,23.44
2024-01-11T12:57:40.118Z,24.67
2024-01-11T12:59:13.628Z,26.85
2024-01-11T13:01:10.231Z,28.02
2024-01-11T13:02:41.994Z,27.81
2024-01-11T13:04:13.722Z,23.86
2024-01-11T13:05:45.196Z,23.93
2024-01-11T13:07:16.843Z,25.76
2024-01-11T13:08:48.152Z,27.99
2024-01-11T13:10:19.438Z,27.51
2024-01-11T13:11:50.780Z,27.43
2024-01-11T13:13:23.228Z,27.85
2024-01-11T13:14:56.541Z,28.44
2024-01-11T13:16:27.728Z,29.21
2024-01-11T13:17:58.991Z,29.00
2024-01-11T13:19:30.306Z,29.90
2024-01-11T13:21:01.829Z,29.64
2024-01-11T13:22:33.199Z,30.40
2024-01-11T13:24:04.523Z,31.42
2024-01-11T13:25:35.713Z,27.59
2024-01-11T13:27:07.117Z,25.95
2024-01-11T13:28:39.748Z,26.60
2024-01-11T13:30:11.145Z,25.35
2024-01-11T13:31:42.769Z,25.53
2024-01-11T13:33:14.506Z,26.22
2024-01-11T13:34:46.043Z,26.56
2024-01-11T13:36:17.564Z,24.11
2024-01-11T13:37:49.467Z,23.54
2024-01-11T13:39:20.997Z,24.53
2024-01-11T13:40:52.398Z,25.25
2024-01-11T13:42:23.882Z,24.13
2024-01-11T13:43:55.283Z,25.70
2024-01-11T13:45:28.068Z,24.70
2024-01-11T13:46:59.683Z,25.21
2024-01-11T13:48:31.245Z,25.39
2024-01-11T13:50:03.216Z,25.53
2024-01-11T13:51:40.402Z,25.65
2024-01-11T13:53:17.273Z,22.92
2024-01-11T13:54:48.756Z,24.53
2024-01-11T13:56:20.891Z,23.84
2024-01-11T13:57:52.932Z,24.99
2024-01-11T13:59:24.153Z,24.18
2024-01-11T14:00:56.925Z,23.51
2024-01-11T14:02:29.565Z,22.27
2024-01-11T14:04:01.047Z,21.06
2024-01-11T14:05:32.689Z,23.47
2024-01-11T14:07:04.354Z,22.58
2024-01-11T14:08:35.827Z,22.24
2024-01-11T14:10:07.389Z,22.78
2024-01-11T14:11:44.062Z,21.06
2024-01-11T14:13:15.565Z,21.04
2024-01-11T14:14:47.165Z,21.26
2024-01-11T14:16:18.649Z,19.98
2024-01-11T14:17:50.391Z,19.27
2024-01-11T14:19:21.997Z,20.08
2024-01-11T14:20:53.742Z,21.84
2024-01-11T14:22:26.645Z,20.11
2024-01-11T14:23:58.580Z,19.73
2024-01-11T14:25:29.961Z,19.38
2024-01-11T14:27:01.232Z,21.26
2024-01-11T14:28:32.431Z,21.31
2024-01-11T14:30:03.587Z,20.54
2024-01-11T14:31:36.790Z,20.39
2024-01-11T14:33:08.129Z,20.81
2024-01-11T14:34:39.545Z,19.93
2024-01-11T14:36:11.043Z,18.18
2024-01-11T14:37:42.249Z,18.79
2024-01-11T14:39:13.446Z,20.35
2024-01-11T14:40:44.765Z,19.37
2024-01-11T14:42:16.072Z,19.48
2024-01-11T14:43:47.377Z,18.38
2024-01-11T14:45:18.555Z,19.58
2024-01-11T14:46:49.671Z,19.63
2024-01-11T14:48:21.012Z,19.16
2024-01-11T14:49:52.343Z,19.75
2024-01-11T14:51:28.492Z,18.66
2024-01-11T14:53:00.058Z,18.88
2024-01-11T14:54:31.231Z,18.53
2024-01-11T14:56:02.530Z,19.30
2024-01-11T14:57:33.924Z,20.18
2024-01-11T14:59:05.288Z,20.75
2024-01-11T15:00:36.632Z,20.98
2024-01-11T15:02:07.966Z,21.01
2024-01-11T15:03:39.326Z,16.58
2024-01-11T15:05:10.844Z,12.79
2024-01-11T15:06:42.227Z,11.74
2024-01-11T15:08:13.756Z,11.41
2024-01-11T15:09:45.055Z,9.28
2024-01-11T15:11:16.443Z,10.44
2024-01-11T15:12:47.656Z,10.31
2024-01-11T15:14:20.083Z,10.12
2024-01-11T15:15:51.373Z,9.39
2024-01-11T15:17:22.818Z,6.34
2024-01-11T15:18:54.182Z,7.69
2024-01-11T15:20:25.715Z,7.64
2024-01-11T15:21:56.943Z,7.56
2024-01-11T15:24:01.364Z,8.44
2024-01-11T15:25:32.951Z,9.32
2024-01-11T15:27:17.879Z,9.49
2024-01-11T15:28:49.853Z,10.59
2024-01-11T15:30:21.432Z,15.10
2024-01-11T15:31:52.903Z,16.95
2024-01-11T15:33:24.175Z,17.52
2024-01-11T15:35:05.561Z,17.91
2024-01-11T15:36:36.985Z,19.69
2024-01-11T15:38:08.337Z,21.19
2024-01-11T15:39:44.618Z,20.49
2024-01-11T15:41:16.072Z,21.27
2024-01-11T15:42:47.331Z,20.81
2024-01-11T15:44:23.807Z,17.54
2024-01-11T15:45:55.243Z,14.61
2024-01-11T15:47:26.834Z,13.41
2024-01-11T15:48:58.749Z,12.56
2024-01-11T15:50:30.104Z,10.86
2024-01-11T15:52:01.702Z,10.12
2024-01-11T15:53:32.993Z,11.07
2024-01-11T15:55:20.833Z,11.07
2024-01-11T15:56:52.627Z,8.77
2024-01-11T15:58:23.928Z,8.14
2024-01-11T15:59:55.183Z,9.89
2024-01-11T16:01:26.511Z,10.00
2024-01-11T16:02:58.145Z,10.45
2024-01-11T16:04:29.336Z,10.26
2024-01-11T16:06:01.439Z,11.01
2024-01-11T16:07:32.846Z,11.52
2024-01-11T16:09:04.099Z,12.38
2024-01-11T16:10:35.435Z,12.76
2024-01-11T16:12:07.075Z,13.24
2024-01-11T16:13:39.176Z,13.07
2024-01-11T16:15:10.414Z,13.68
2024-01-11T16:16:41.742Z,13.93
2024-01-11T16:18:13.066Z,13.89
2024-01-11T16:19:54.379Z,13.95
2024-01-11T16:21:25.818Z,15.02
2024-01-11T16:22:57.146Z,14.50
2024-01-11T16:24:50.433Z,13.75
2024-01-11T16:26:21.853Z,12.30
2024-01-11T16:28:03.146Z,10.44
2024-01-11T16:29:54.568Z,8.51
2024-01-11T16:31:25.989Z,9.35
2024-01-11T16:32:57.383Z,10.76
2024-01-11T16:34:29.112Z,10.17
2024-01-11T16:36:00.799Z,10.31
2024-01-11T16:37:32.228Z,10.26
2024-01-11T16:39:03.615Z,9.65
2024-01-11T16:40:34.762Z,9.01
2024-01-11T16:42:06.187Z,8.78
2024-01-11T16:43:37.404Z,9.73
2024-01-11T16:45:08.638Z,10.27
2024-01-11T16:46:44.878Z,10.87
2024-01-11T16:48:16.209Z,11.38
2024-01-11T16:49:47.549Z,11.58
2024-01-11T16:51:18.925Z,11.61
2024-01-11T16:53:00.180Z,11.45
2024-01-11T16:54:31.454Z,11.02
2024-01-11T16:56:02.773Z,11.70
2024-01-11T16:57:34.126Z,12.04
2024-01-11T16:59:05.307Z,13.08
2024-01-11T17:00:36.516Z,12.43
2024-01-11T17:02:08.077Z,13.12
2024-01-11T17:03:59.509Z,13.65
2024-01-11T17:05:31.113Z,13.82
2024-01-11T17:07:07.508Z,14.92
2024-01-11T17:08:38.748Z,15.29
2024-01-11T17:10:10.077Z,15.29
2024-01-11T17:12:03.833Z,15.32
2024-01-11T17:13:35.187Z,16.46
2024-01-11T17:15:06.698Z,15.98
2024-01-11T17:16:48.428Z,15.36
2024-01-11T17:18:51.706Z,15.38
2024-01-11T17:20:26.057Z,16.18
2024-01-11T17:22:12.788Z,15.70
2024-01-11T17:23:44.632Z,15.76
2024-01-11T17:25:42.339Z,16.40
2024-01-11T17:27:32.195Z,15.94
2024-01-11T17:29:04.191Z,16.22
2024-01-11T17:30:35.911Z,16.53
2024-01-11T17:32:08.050Z,15.53
2024-01-11T17:33:40.097Z,16.42
2024-01-11T17:35:11.900Z,16.92
2024-01-11T17:36:49.061Z,16.32
2024-01-11T17:38:41.693Z,15.70
2024-01-11T17:40:40.190Z,15.05
2024-01-11T17:42:11.671Z,15.37
2024-01-11T17:43:43.765Z,15.29
2024-01-11T17:45:20.681Z,15.46
2024-01-11T17:46:53.548Z,16.65
2024-01-11T17:48:25.727Z,16.34
2024-01-11T17:49:57.597Z,17.05
2024-01-11T17:51:44.272Z,17.67
2024-01-11T17:53:36.315Z,17.54
2024-01-11T17:55:14.000Z,17.16
2024-01-11T17:56:45.738Z,17.22
2024-01-11T17:58:17.287Z,15.71
2024-01-11T17:59:48.756Z,15.99
2024-01-11T18:01:20.306Z,15.58
2024-01-11T18:03:00.597Z,15.43
2024-01-11T18:04:32.333Z,14.91
2024-01-11T18:06:04.505Z,14.86
2024-01-11T18:07:37.201Z,14.65
2024-01-11T18:09:11.620Z,14.35
2024-01-11T18:10:43.593Z,15.00
2024-01-11T18:12:25.244Z,14.62
2024-01-11T18:13:56.976Z,14.10
2024-01-11T18:15:28.776Z,14.25
2024-01-11T18:19:01.887Z,13.26
2024-01-11T18:20:33.534Z,13.27
2024-01-11T18:22:33.095Z,12.73
2024-01-11T18:24:20.312Z,11.79
2024-01-11T18:25:52.056Z,11.89
2024-01-11T18:27:33.246Z,12.09
2024-01-11T18:29:09.960Z,11.66
2024-01-11T18:30:52.482Z,11.73
2024-01-11T18:32:24.188Z,11.46
2024-01-11T18:33:55.690Z,11.64
2024-01-11T18:35:27.232Z,11.79
2024-01-11T18:36:58.940Z,12.20
2024-01-11T18:38:30.479Z,12.34
2024-01-11T18:40:01.998Z,12.30
2024-01-11T18:41:33.751Z,12.27
2024-01-11T18:43:05.246Z,12.56
2024-01-11T18:44:36.769Z,12.38
2024-01-11T18:46:08.221Z,11.89
2024-01-11T18:47:39.932Z,12.68
2024-01-11T18:49:16.876Z,12.50
2024-01-11T18:50:48.574Z,12.86
2024-01-11T18:52:20.116Z,12.38
2024-01-11T18:53:51.740Z,12.48
2024-01-11T18:55:38.277Z,12.88
2024-01-11T18:57:09.628Z,12.81
2024-01-11T18:58:46.219Z,12.76
2024-01-11T19:00:17.930Z,13.10
2024-01-11T19:01:50.913Z,13.33
2024-01-11T19:03:22.445Z,13.77
2024-01-11T19:04:53.763Z,13.30
2024-01-11T19:06:35.758Z,13.42
2024-01-11T19:08:34.473Z,14.57
2024-01-11T19:10:06.054Z,14.06
2024-01-11T19:11:44.993Z,14.53
2024-01-11T19:13:27.326Z,15.16
2024-01-11T19:14:58.984Z,16.06
2024-01-11T19:16:36.582Z,16.04
2024-01-11T19:18:39.343Z,16.00
2024-01-11T19:20:17.338Z,15.54
2024-01-11T19:21:49.105Z,15.49
2024-01-11T19:23:20.911Z,14.70
2024-01-11T19:24:52.418Z,15.08
2024-01-11T19:26:29.891Z,15.13
2024-01-11T19:28:01.299Z,15.06
2024-01-11T19:29:33.612Z,15.23
2024-01-11T19:31:33.240Z,14.80
2024-01-11T19:33:21.590Z,15.30
2024-01-11T19:35:04.801Z,15.99
2024-01-11T19:37:10.498Z,15.16
2024-01-11T19:39:02.845Z,16.05
2024-01-11T19:40:44.398Z,16.14
2024-01-11T19:42:50.546Z,16.42
2024-01-11T19:44:21.999Z,16.02
2024-01-11T19:45:59.894Z,16.80
2024-01-11T19:49:42.400Z,15.76
2024-01-11T19:51:14.056Z,16.55
2024-01-11T19:52:45.345Z,16.53
2024-01-11T19:54:42.758Z,16.91
2024-01-11T19:56:31.996Z,17.41
2024-01-11T19:58:13.666Z,18.00
2024-01-11T20:00:12.270Z,18.38
2024-01-11T20:01:55.512Z,17.38
2024-01-11T20:03:27.413Z,17.98
2024-01-11T20:05:10.849Z,18.30
2024-01-11T20:07:09.520Z,18.06
2024-01-11T20:09:28.333Z,20.15
2024-01-11T20:10:59.560Z,20.13
2024-01-11T20:12:40.790Z,20.08
2024-01-11T20:14:39.829Z,20.88
2024-01-11T20:16:21.374Z,20.06
2024-01-11T20:18:02.829Z,20.61
2024-01-11T20:19:44.324Z,20.28
2024-01-11T20:21:16.619Z,20.37
2024-01-11T20:22:47.916Z,21.40
2024-01-11T20:24:42.037Z,21.26
2024-01-11T20:28:12.339Z,21.73
2024-01-11T20:29:43.682Z,21.13
2024-01-11T20:31:15.796Z,21.99
2024-01-11T20:32:52.725Z,21.98
2024-01-11T20:34:24.518Z,30.88
2024-01-11T20:35:55.839Z,34.39
2024-01-11T20:37:37.168Z,27.76
2024-01-11T20:39:08.546Z,26.07
2024-01-11T20:40:39.851Z,23.45
2024-01-11T20:42:11.038Z,21.92
2024-01-11T20:43:42.570Z,22.12
2024-01-11T20:45:23.896Z,23.17
2024-01-11T20:46:55.232Z,23.60
2024-01-11T20:48:26.830Z,22.59